Alloa, United Kingdom
Current Conditions -  °F | °C
As of 1:20 AM on Wednesday 26 Nov 2014 (Local Time) from EGPH Reporting Station
Light Fog Light Fog  
Wind Chill: 37°   Ceiling: Unl
Heat Index: 37°   Visibility: 0.37mi
Dew Point: 36°   Wind: 3mph
Humidity: 93%   Direction: 230°SW
Pressure: 30.09"   Gusts: NA
Location:  56.12°N, 3.79°W
Report Text: EGPH 260120Z 23003KT 0600 R24/0275 BCFG FEW010 03/02 Q1019
Loading
Personal Weather Stations






























Interactive Weather Map New forecast layout! Learn more

10-Day Weather Forecast

Advertisements
Track Severe Weather on mobile